createdAt,value
2023-02-14T00:01:33.099Z,7.03
2023-02-14T00:04:01.662Z,6.95
2023-02-14T00:06:29.839Z,7.25
2023-02-14T00:08:57.882Z,6.18
2023-02-14T00:11:25.777Z,6.95
2023-02-14T00:14:11.184Z,5.97
2023-02-14T00:16:40.721Z,6.50
2023-02-14T00:19:10.187Z,6.65
2023-02-14T00:21:40.380Z,7.18
2023-02-14T00:24:11.379Z,6.88
2023-02-14T00:26:40.109Z,7.15
2023-02-14T00:29:10.815Z,7.68
2023-02-14T00:31:41.515Z,5.72
2023-02-14T00:34:10.577Z,7.43
2023-02-14T00:36:39.303Z,7.72
2023-02-14T00:39:09.180Z,5.50
2023-02-14T00:41:38.824Z,5.80
2023-02-14T00:44:07.387Z,7.00
2023-02-14T00:46:36.080Z,6.85
2023-02-14T00:49:05.829Z,5.32
2023-02-14T00:51:33.746Z,6.75
2023-02-14T00:54:03.406Z,6.15
2023-02-14T00:56:33.115Z,6.93
2023-02-14T00:59:01.154Z,7.00
2023-02-14T01:01:29.418Z,5.60
2023-02-14T01:03:58.918Z,7.13
2023-02-14T01:06:28.267Z,7.68
2023-02-14T01:08:58.390Z,6.20
2023-02-14T01:11:28.198Z,7.90
2023-02-14T01:13:58.886Z,6.50
2023-02-14T01:16:28.625Z,6.72
2023-02-14T01:18:57.037Z,6.15
2023-02-14T01:21:27.178Z,6.10
2023-02-14T01:24:00.886Z,6.10
2023-02-14T01:26:29.971Z,5.35
2023-02-14T01:28:58.216Z,6.43
2023-02-14T01:31:29.366Z,5.97
2023-02-14T01:33:58.933Z,6.38
2023-02-14T01:36:32.138Z,6.10
2023-02-14T01:39:04.620Z,8.05
2023-02-14T01:41:36.368Z,6.68
2023-02-14T01:44:09.416Z,6.90
2023-02-14T01:49:13.049Z,6.63
2023-02-14T01:51:45.296Z,6.28
2023-02-14T01:54:16.101Z,6.07
2023-02-14T01:56:48.774Z,5.95
2023-02-14T01:59:20.655Z,7.32
2023-02-14T02:01:51.289Z,6.88
2023-02-14T02:04:23.807Z,6.55
2023-02-14T02:06:54.475Z,7.13
2023-02-14T02:09:32.096Z,7.57
2023-02-14T02:12:00.560Z,6.65
2023-02-14T02:14:28.502Z,5.97
2023-02-14T02:17:20.731Z,6.20
2023-02-14T02:20:26.140Z,6.18
2023-02-14T02:23:34.825Z,7.22
2023-02-14T02:26:45.017Z,6.15
2023-02-14T02:29:34.584Z,6.68
2023-02-14T02:32:26.813Z,6.53
2023-02-14T02:35:16.982Z,7.10
2023-02-14T02:37:55.401Z,6.75
2023-02-14T02:40:45.167Z,7.10
2023-02-14T02:43:29.839Z,7.82
2023-02-14T02:46:23.111Z,6.38
2023-02-14T02:49:00.724Z,7.40
2023-02-14T02:51:59.555Z,8.48
2023-02-14T02:54:34.587Z,6.70
2023-02-14T02:57:06.918Z,6.30
2023-02-14T02:59:39.481Z,6.28
2023-02-14T03:02:12.723Z,6.63
2023-02-14T03:04:56.148Z,7.03
2023-02-14T03:07:39.615Z,7.55
2023-02-14T03:10:14.135Z,7.45
2023-02-14T03:13:11.757Z,7.32
2023-02-14T03:15:54.187Z,6.93
2023-02-14T03:18:52.433Z,7.85
2023-02-14T03:21:28.787Z,7.85
2023-02-14T03:24:06.546Z,8.15
2023-02-14T03:26:40.418Z,7.47
2023-02-14T03:29:16.947Z,8.90
2023-02-14T03:31:55.777Z,6.38
2023-02-14T03:34:31.510Z,6.68
2023-02-14T03:37:04.710Z,6.38
2023-02-14T03:39:40.898Z,7.63
2023-02-14T03:42:15.535Z,7.35
2023-02-14T03:44:46.448Z,8.25
2023-02-14T03:50:00.346Z,6.55
2023-02-14T03:52:31.611Z,7.63
2023-02-14T03:55:03.896Z,6.65
2023-02-14T03:57:37.011Z,7.60
2023-02-14T04:02:44.142Z,6.10
2023-02-14T04:05:17.693Z,9.15
2023-02-14T04:07:47.325Z,6.50
2023-02-14T04:10:18.009Z,6.45
2023-02-14T04:12:46.113Z,6.82
2023-02-14T04:15:15.549Z,7.13
2023-02-14T04:18:00.885Z,8.13
2023-02-14T04:20:29.667Z,8.77
2023-02-14T04:22:57.592Z,6.90
2023-02-14T04:25:27.261Z,7.15
2023-02-14T04:27:55.044Z,8.55
2023-02-14T04:30:23.383Z,9.00
2023-02-14T04:32:51.249Z,7.53
2023-02-14T04:35:19.223Z,7.55
2023-02-14T04:37:47.057Z,9.05
2023-02-14T04:40:17.272Z,8.52
2023-02-14T04:42:46.898Z,9.38
2023-02-14T04:45:15.003Z,7.25
2023-02-14T04:47:42.763Z,7.50
2023-02-14T04:50:11.099Z,8.30
2023-02-14T04:52:39.222Z,8.27
2023-02-14T04:55:08.148Z,8.32
2023-02-14T04:57:35.933Z,9.73
2023-02-14T05:00:06.094Z,9.55
2023-02-14T05:02:33.925Z,9.15
2023-02-14T05:05:01.740Z,8.20
2023-02-14T05:07:29.550Z,8.77
2023-02-14T05:09:57.336Z,10.27
2023-02-14T05:12:25.193Z,7.75
2023-02-14T05:14:52.973Z,10.77
2023-02-14T05:17:22.081Z,8.73
2023-02-14T05:19:49.887Z,9.63
2023-02-14T05:22:18.604Z,9.43
2023-02-14T05:24:46.441Z,9.00
2023-02-14T05:27:14.189Z,8.45
2023-02-14T05:29:42.066Z,8.82
2023-02-14T05:32:10.120Z,8.95
2023-02-14T05:34:39.365Z,10.52
2023-02-14T05:37:07.202Z,8.95
2023-02-14T05:39:35.013Z,10.40
2023-02-14T05:42:03.202Z,9.77
2023-02-14T05:44:31.010Z,9.43
2023-02-14T05:46:58.827Z,8.43
2023-02-14T05:49:26.561Z,9.30
2023-02-14T05:51:55.673Z,9.18
2023-02-14T05:54:23.470Z,10.05
2023-02-14T05:56:51.218Z,10.73
2023-02-14T05:59:19.050Z,10.65
2023-02-14T06:01:46.873Z,10.35
2023-02-14T06:04:14.678Z,10.05
2023-02-14T06:06:42.417Z,8.13
2023-02-14T06:09:11.512Z,10.35
2023-02-14T06:11:39.249Z,10.77
2023-02-14T06:14:06.969Z,11.07
2023-02-14T06:16:34.799Z,8.70
2023-02-14T06:19:02.620Z,9.57
2023-02-14T06:21:30.435Z,9.80
2023-02-14T06:23:58.306Z,10.75
2023-02-14T06:26:28.042Z,11.45
2023-02-14T06:28:56.215Z,10.05
2023-02-14T06:31:24.517Z,9.77
2023-02-14T06:33:53.609Z,11.82
2023-02-14T06:36:21.773Z,9.55
2023-02-14T06:38:49.928Z,11.45
2023-02-14T06:41:18.439Z,11.00
2023-02-14T06:43:49.040Z,11.05
2023-02-14T06:46:17.380Z,9.55
2023-02-14T06:48:45.323Z,11.05
2023-02-14T06:51:13.576Z,11.02
2023-02-14T06:53:41.613Z,10.45
2023-02-14T06:56:09.450Z,11.48
2023-02-14T06:58:37.205Z,12.18
2023-02-14T07:01:06.721Z,11.30
2023-02-14T07:03:34.583Z,12.38
2023-02-14T07:06:02.427Z,15.52
2023-02-14T07:08:30.197Z,13.02
2023-02-14T07:10:58.742Z,13.65
2023-02-14T07:13:26.920Z,11.32
2023-02-14T07:15:54.741Z,11.25
2023-02-14T07:18:24.113Z,12.18
2023-02-14T07:20:52.367Z,11.27
2023-02-14T07:23:20.102Z,12.80
2023-02-14T07:25:47.889Z,13.98
2023-02-14T07:28:15.604Z,13.75
2023-02-14T07:30:43.474Z,13.57
2023-02-14T07:33:12.207Z,13.20
2023-02-14T07:35:41.412Z,13.38
2023-02-14T07:38:09.530Z,13.23
2023-02-14T07:40:37.314Z,14.13
2023-02-14T07:43:05.018Z,13.70
2023-02-14T07:45:33.014Z,12.75
2023-02-14T07:48:02.057Z,13.27
2023-02-14T07:50:30.449Z,13.52
2023-02-14T07:52:59.700Z,12.95
2023-02-14T07:55:27.596Z,14.18
2023-02-14T07:57:55.365Z,13.38
2023-02-14T08:00:24.017Z,14.93
2023-02-14T08:02:51.872Z,14.63
2023-02-14T08:05:19.901Z,15.20
2023-02-14T08:07:47.704Z,15.43
2023-02-14T08:10:17.100Z,13.75
2023-02-14T08:13:00.047Z,15.43
2023-02-14T08:15:46.812Z,16.08
2023-02-14T08:18:15.102Z,14.55
2023-02-14T08:20:43.622Z,13.73
2023-02-14T08:23:11.860Z,13.50
2023-02-14T08:25:41.285Z,14.85
2023-02-14T08:28:09.329Z,14.18
2023-02-14T08:30:38.796Z,15.88
2023-02-14T08:33:07.038Z,15.13
2023-02-14T08:35:35.359Z,13.52
2023-02-14T08:38:03.714Z,15.45
2023-02-14T08:40:31.848Z,16.50
2023-02-14T08:43:00.999Z,15.68
2023-02-14T08:45:28.794Z,15.63
2023-02-14T08:48:02.321Z,14.38
2023-02-14T08:50:30.230Z,14.93
2023-02-14T08:52:58.007Z,16.00
2023-02-14T08:55:26.043Z,15.13
2023-02-14T08:57:55.451Z,16.08
2023-02-14T09:00:24.812Z,14.98
2023-02-14T09:02:53.563Z,16.13
2023-02-14T09:05:23.294Z,17.08
2023-02-14T09:07:51.781Z,15.25
2023-02-14T09:10:20.027Z,15.30
2023-02-14T09:12:47.940Z,14.70
2023-02-14T09:15:15.745Z,16.17
2023-02-14T09:17:45.001Z,16.17
2023-02-14T09:20:14.692Z,16.35
2023-02-14T09:22:42.625Z,16.55
2023-02-14T09:25:10.655Z,18.75
2023-02-14T09:27:38.568Z,17.63
2023-02-14T09:30:07.379Z,16.95
2023-02-14T09:32:35.306Z,15.93
2023-02-14T09:35:04.524Z,15.32
2023-02-14T09:37:32.376Z,16.08
2023-02-14T09:40:00.183Z,15.65
2023-02-14T09:42:47.342Z,16.88
2023-02-14T09:45:18.285Z,16.13
2023-02-14T09:47:50.494Z,14.77
2023-02-14T09:50:25.466Z,15.60
2023-02-14T09:52:57.085Z,16.27
2023-02-14T09:55:30.001Z,16.35
2023-02-14T10:00:38.069Z,14.50
2023-02-14T10:03:38.304Z,15.43
2023-02-14T10:06:20.392Z,15.55
2023-02-14T10:09:03.130Z,15.30
2023-02-14T10:11:31.444Z,15.40
2023-02-14T10:14:05.178Z,14.05
2023-02-14T10:16:37.837Z,14.55
2023-02-14T10:19:14.992Z,16.70
2023-02-14T10:21:51.738Z,14.45
2023-02-14T10:24:24.514Z,14.20
2023-02-14T10:27:16.779Z,14.95
2023-02-14T10:29:44.760Z,14.75
2023-02-14T10:32:16.014Z,12.95
2023-02-14T10:34:49.183Z,14.15
2023-02-14T10:37:31.326Z,12.10
2023-02-14T10:40:22.596Z,13.82
2023-02-14T10:42:58.603Z,13.10
2023-02-14T10:45:35.662Z,14.38
2023-02-14T10:48:16.645Z,12.65
2023-02-14T10:50:52.331Z,13.00
2023-02-14T10:53:27.919Z,13.68
2023-02-14T10:56:01.172Z,13.13
2023-02-14T10:58:33.605Z,14.48
2023-02-14T11:01:04.810Z,12.80
2023-02-14T11:03:35.914Z,13.68
2023-02-14T11:06:03.917Z,13.55
2023-02-14T11:08:36.191Z,14.73
2023-02-14T11:11:14.877Z,11.73
2023-02-14T11:13:43.363Z,12.07
2023-02-14T11:16:14.145Z,13.38
2023-02-14T11:18:42.671Z,14.38
2023-02-14T11:21:12.218Z,14.32
2023-02-14T11:23:43.996Z,11.60
2023-02-14T11:26:18.403Z,12.05
2023-02-14T11:28:55.295Z,11.75
2023-02-14T11:31:29.340Z,12.57
2023-02-14T11:33:57.890Z,12.13
2023-02-14T11:36:26.671Z,14.75
2023-02-14T11:39:06.504Z,11.80
2023-02-14T11:41:48.890Z,9.07
2023-02-14T11:44:22.606Z,13.02
2023-02-14T11:46:53.532Z,12.15
2023-02-14T11:49:29.624Z,12.65
2023-02-14T11:51:59.464Z,10.63
2023-02-14T11:54:36.184Z,12.52
2023-02-14T11:57:08.015Z,11.77
2023-02-14T11:59:39.957Z,11.52
2023-02-14T12:02:23.108Z,12.95
2023-02-14T12:04:56.079Z,10.95
2023-02-14T12:07:29.140Z,11.88
2023-02-14T12:10:17.418Z,14.88
2023-02-14T12:12:51.975Z,10.60
2023-02-14T12:15:27.176Z,10.52
2023-02-14T12:18:02.103Z,11.93
2023-02-14T12:20:39.324Z,11.18
2023-02-14T12:23:16.321Z,11.77
2023-02-14T12:25:52.335Z,11.60
2023-02-14T12:28:30.782Z,11.35
2023-02-14T12:30:59.370Z,10.55
2023-02-14T12:33:27.530Z,10.52
2023-02-14T12:36:04.772Z,10.90
2023-02-14T12:38:43.637Z,12.10
2023-02-14T12:41:31.898Z,11.70
2023-02-14T12:44:05.697Z,11.48
2023-02-14T12:46:46.648Z,10.70
2023-02-14T12:49:27.496Z,10.27
2023-02-14T12:52:11.170Z,10.75
2023-02-14T12:54:57.858Z,12.48
2023-02-14T12:57:41.964Z,10.95
2023-02-14T13:00:24.055Z,11.15
2023-02-14T13:03:27.784Z,10.97
2023-02-14T13:06:04.801Z,11.10
2023-02-14T13:08:51.864Z,11.45
2023-02-14T13:11:32.846Z,10.75
2023-02-14T13:14:11.566Z,10.65
2023-02-14T13:16:50.325Z,12.63
2023-02-14T13:19:35.641Z,11.30
2023-02-14T13:22:06.181Z,10.38
2023-02-14T13:24:40.603Z,11.68
2023-02-14T13:27:13.638Z,11.30
2023-02-14T13:29:48.584Z,10.63
2023-02-14T13:32:21.080Z,10.43
2023-02-14T13:34:50.908Z,10.75
2023-02-14T13:37:21.760Z,10.38
2023-02-14T13:39:53.221Z,10.25
2023-02-14T13:42:53.712Z,11.00
2023-02-14T13:45:54.675Z,10.10
2023-02-14T13:48:24.500Z,10.20
2023-02-14T13:50:56.129Z,10.35
2023-02-14T13:53:33.623Z,10.30
2023-02-14T13:56:02.987Z,11.48
2023-02-14T13:58:31.951Z,11.18
2023-02-14T14:01:39.254Z,10.77
2023-02-14T14:04:39.075Z,11.23
2023-02-14T14:07:30.387Z,11.30
2023-02-14T14:10:03.910Z,10.60
2023-02-14T14:12:39.996Z,11.23
2023-02-14T14:15:21.973Z,10.77
2023-02-14T14:18:29.308Z,11.63
2023-02-14T14:20:58.579Z,9.90
2023-02-14T14:23:38.515Z,10.23
2023-02-14T14:26:37.172Z,10.25
2023-02-14T14:29:13.312Z,10.95
2023-02-14T14:31:42.616Z,12.18
2023-02-14T14:34:18.856Z,10.82
2023-02-14T14:36:48.190Z,10.40
2023-02-14T14:39:28.298Z,9.75
2023-02-14T14:41:56.946Z,11.35
2023-02-14T14:44:26.595Z,10.18
2023-02-14T14:46:54.651Z,12.18
2023-02-14T14:49:22.549Z,10.00
2023-02-14T14:51:51.908Z,11.10
2023-02-14T14:54:22.707Z,12.45
2023-02-14T14:56:56.731Z,10.40
2023-02-14T14:59:30.969Z,10.02
2023-02-14T15:01:59.196Z,11.15
2023-02-14T15:04:29.870Z,12.02
2023-02-14T15:07:18.533Z,10.27
2023-02-14T15:09:46.577Z,11.60
2023-02-14T15:12:39.155Z,10.75
2023-02-14T15:15:10.136Z,11.50
2023-02-14T15:17:38.706Z,11.65
2023-02-14T15:20:11.484Z,11.25
2023-02-14T15:22:45.432Z,11.10
2023-02-14T15:25:20.109Z,10.23
2023-02-14T15:27:48.734Z,10.30
2023-02-14T15:30:26.625Z,10.35
2023-02-14T15:32:55.295Z,11.07
2023-02-14T15:35:28.005Z,10.63
2023-02-14T15:38:01.750Z,10.43
2023-02-14T15:40:32.246Z,12.07
2023-02-14T15:43:14.736Z,10.38
2023-02-14T15:45:44.192Z,9.25
2023-02-14T15:48:19.702Z,9.98
2023-02-14T15:50:51.003Z,9.95
2023-02-14T15:53:32.774Z,11.13
2023-02-14T15:56:06.775Z,9.27
2023-02-14T15:58:38.410Z,10.45
2023-02-14T16:01:07.384Z,10.40
2023-02-14T16:03:37.526Z,11.02
2023-02-14T16:06:06.306Z,9.05
2023-02-14T16:08:37.716Z,10.07
2023-02-14T16:11:08.915Z,10.35
2023-02-14T16:13:39.251Z,10.10
2023-02-14T16:16:08.604Z,10.50
2023-02-14T16:18:39.245Z,11.05
2023-02-14T16:21:16.416Z,9.75
2023-02-14T16:23:47.633Z,10.48
2023-02-14T16:26:15.804Z,11.35
2023-02-14T16:28:44.354Z,9.15
2023-02-14T16:31:17.229Z,10.15
2023-02-14T16:36:20.709Z,11.55
2023-02-14T16:38:50.795Z,11.07
2023-02-14T16:41:20.802Z,11.35
2023-02-14T16:43:49.712Z,12.23
2023-02-14T16:46:19.925Z,12.27
2023-02-14T16:48:52.082Z,11.50
2023-02-14T16:51:21.801Z,11.77
2023-02-14T16:53:51.572Z,11.02
2023-02-14T16:56:23.881Z,11.60
2023-02-14T16:58:51.911Z,11.32
2023-02-14T17:01:19.743Z,13.05
2023-02-14T17:03:47.734Z,12.45
2023-02-14T17:06:19.947Z,12.68
2023-02-14T17:08:50.168Z,10.35
2023-02-14T17:11:20.752Z,11.02
2023-02-14T17:13:49.722Z,10.60
2023-02-14T17:16:18.351Z,11.95
2023-02-14T17:18:49.606Z,12.48
2023-02-14T17:21:20.540Z,11.57
2023-02-14T17:23:48.443Z,11.82
2023-02-14T17:26:17.944Z,11.68
2023-02-14T17:28:47.801Z,12.40
2023-02-14T17:31:16.742Z,12.60
2023-02-14T17:33:44.682Z,12.18
2023-02-14T17:36:14.594Z,13.13
2023-02-14T17:38:43.413Z,11.18
2023-02-14T17:41:13.458Z,11.00
2023-02-14T17:43:41.701Z,13.68
2023-02-14T17:46:11.429Z,12.00
2023-02-14T17:48:39.347Z,11.88
2023-02-14T17:51:08.255Z,12.05
2023-02-14T17:53:36.813Z,12.73
2023-02-14T17:56:06.840Z,10.73
2023-02-14T17:58:34.736Z,10.60
2023-02-14T18:01:04.332Z,12.02
2023-02-14T18:03:34.720Z,11.25
2023-02-14T18:06:04.144Z,10.75
2023-02-14T18:08:34.236Z,12.20
2023-02-14T18:11:05.864Z,14.05
2023-02-14T18:13:34.128Z,20.05
2023-02-14T18:16:03.298Z,21.17
2023-02-14T18:18:31.367Z,25.40
2023-02-14T18:21:03.061Z,19.80
2023-02-14T18:23:32.641Z,15.43
2023-02-14T18:26:04.204Z,15.60
2023-02-14T18:28:32.789Z,12.88
2023-02-14T18:31:04.482Z,11.55
2023-02-14T18:33:32.426Z,10.18
2023-02-14T18:36:04.292Z,11.15
2023-02-14T18:38:32.215Z,12.65
2023-02-14T18:41:03.291Z,11.30
2023-02-14T18:43:31.451Z,11.50
2023-02-14T18:46:03.915Z,11.23
2023-02-14T18:48:32.119Z,10.95
2023-02-14T18:51:07.307Z,11.30
2023-02-14T18:53:35.373Z,10.93
2023-02-14T18:56:05.343Z,10.55
2023-02-14T18:58:33.519Z,11.45
2023-02-14T19:01:09.277Z,11.25
2023-02-14T19:03:37.232Z,11.00
2023-02-14T19:06:07.486Z,11.80
2023-02-14T19:08:36.816Z,11.95
2023-02-14T19:11:05.130Z,10.65
2023-02-14T19:13:33.061Z,12.35
2023-02-14T19:16:01.174Z,11.60
2023-02-14T19:18:29.485Z,12.20
2023-02-14T19:20:57.279Z,11.52
2023-02-14T19:23:26.713Z,12.63
2023-02-14T19:25:54.768Z,13.80
2023-02-14T19:28:22.828Z,12.55
2023-02-14T19:30:50.669Z,10.63
2023-02-14T19:33:18.611Z,13.27
2023-02-14T19:35:46.448Z,13.73
2023-02-14T19:38:14.670Z,13.25
2023-02-14T19:40:46.353Z,14.85
2023-02-14T19:43:14.498Z,13.75
2023-02-14T19:45:42.470Z,13.30
2023-02-14T19:48:11.161Z,14.07
2023-02-14T19:50:41.862Z,13.82
2023-02-14T19:53:10.138Z,13.45
2023-02-14T19:55:39.909Z,13.75
2023-02-14T19:58:09.674Z,13.95
2023-02-14T20:00:38.136Z,14.18
2023-02-14T20:03:06.182Z,13.38
2023-02-14T20:05:35.242Z,13.63
2023-02-14T20:08:03.102Z,13.73
2023-02-14T20:10:32.885Z,14.55
2023-02-14T20:13:02.382Z,14.93
2023-02-14T20:18:37.129Z,16.33
2023-02-14T20:21:12.238Z,14.65
2023-02-14T20:23:44.199Z,12.77
2023-02-14T20:26:14.118Z,15.13
2023-02-14T20:28:43.300Z,13.40
2023-02-14T20:31:19.063Z,14.48
2023-02-14T20:33:50.459Z,16.33
2023-02-14T20:36:20.168Z,15.20
2023-02-14T20:38:51.280Z,15.45
2023-02-14T20:41:19.242Z,13.68
2023-02-14T20:43:48.744Z,15.55
2023-02-14T20:46:21.333Z,16.40
2023-02-14T20:48:54.123Z,16.92
2023-02-14T20:51:23.981Z,15.57
2023-02-14T20:53:54.092Z,13.45
2023-02-14T20:56:26.020Z,15.65
2023-02-14T20:58:54.220Z,13.90
2023-02-14T21:01:46.380Z,14.25
2023-02-14T21:04:17.902Z,15.10
2023-02-14T21:06:47.672Z,15.60
2023-02-14T21:09:16.532Z,14.10
2023-02-14T21:11:44.441Z,14.57
2023-02-14T21:14:12.840Z,14.38
2023-02-14T21:16:42.056Z,14.63
2023-02-14T21:19:09.987Z,14.40
2023-02-14T21:21:39.160Z,15.20
2023-02-14T21:24:09.668Z,14.40
2023-02-14T21:26:38.054Z,16.00
2023-02-14T21:29:06.483Z,16.95
2023-02-14T21:31:34.564Z,15.35
2023-02-14T21:34:04.788Z,15.77
2023-02-14T21:36:35.524Z,14.82
2023-02-14T21:39:04.369Z,16.23
2023-02-14T21:41:32.983Z,16.73
2023-02-14T21:44:02.754Z,15.70
2023-02-14T21:46:32.013Z,15.73
2023-02-14T21:49:19.454Z,17.02
2023-02-14T21:51:52.023Z,15.80
2023-02-14T21:54:20.330Z,16.17
2023-02-14T21:56:49.290Z,15.73
2023-02-14T21:59:17.255Z,16.02
2023-02-14T22:01:45.930Z,15.55
2023-02-14T22:04:14.103Z,17.00
2023-02-14T22:06:43.068Z,16.88
2023-02-14T22:09:17.410Z,18.60
2023-02-14T22:11:47.603Z,15.88
2023-02-14T22:14:15.730Z,14.65
2023-02-14T22:16:43.584Z,17.10
2023-02-14T22:19:14.747Z,17.25
2023-02-14T22:21:43.414Z,17.45
2023-02-14T22:24:12.820Z,16.88
2023-02-14T22:26:41.853Z,16.73
2023-02-14T22:29:13.121Z,16.20
2023-02-14T22:31:43.594Z,19.95
2023-02-14T22:34:13.753Z,17.77
2023-02-14T22:36:41.949Z,15.60
2023-02-14T22:39:09.901Z,17.70
2023-02-14T22:41:39.618Z,18.52
2023-02-14T22:44:07.830Z,18.05
2023-02-14T22:46:38.764Z,18.30
2023-02-14T22:49:09.144Z,18.33
2023-02-14T22:51:38.658Z,19.83
2023-02-14T22:54:09.058Z,16.67
2023-02-14T22:56:40.955Z,18.15
2023-02-14T22:59:14.508Z,17.27
2023-02-14T23:01:42.508Z,18.20
2023-02-14T23:04:10.975Z,15.73
2023-02-14T23:06:38.946Z,18.52
2023-02-14T23:09:09.083Z,18.20
2023-02-14T23:11:40.037Z,17.00
2023-02-14T23:14:25.940Z,18.83
2023-02-14T23:17:20.135Z,17.05
2023-02-14T23:20:06.306Z,17.63
2023-02-14T23:22:36.565Z,17.33
2023-02-14T23:25:07.093Z,18.58
2023-02-14T23:27:38.426Z,18.35
2023-02-14T23:30:08.434Z,18.15
2023-02-14T23:32:37.219Z,19.45
2023-02-14T23:35:05.269Z,19.05
2023-02-14T23:37:33.711Z,19.05
2023-02-14T23:40:01.573Z,18.30
2023-02-14T23:42:29.471Z,19.83
2023-02-14T23:45:18.708Z,19.92
2023-02-14T23:47:46.708Z,19.75
2023-02-14T23:50:15.516Z,20.30
2023-02-14T23:52:44.480Z,22.45
2023-02-14T23:55:12.353Z,21.50
2023-02-14T23:57:40.753Z,20.08
